.
WxDataArchive / Data Records for 2013-07-23
2013-07-22 July 2013 2013-07-24

Data Records for Tuesday, 23 July 2013

Time	Temp	Chill	HIndex	Humid	Dewpt	 Wind 	HiWind	WindDir	Rain 	Barom 
-----	----	-----	------	-----	-----	------	------	-------	-----	----- 
00:00	69.3	69.3	69.3	89	65.9	0	0	---	0.00	29.787 
00:05	69.1	69.1	69.1	90	66.0	0	0	---	0.00	29.787 
00:10	69.1	69.1	69.1	90	66.0	0	0	---	0.00	29.787 
00:15	68.9	68.9	68.9	90	65.8	0	0	---	0.00	29.788 
00:20	68.9	68.9	68.9	90	65.8	0	0	---	0.00	29.788 
00:25	68.8	68.8	68.8	90	65.7	0	0	---	0.00	29.788 
00:30	68.8	68.8	68.8	90	65.7	0	0	---	0.00	29.794 
00:35	68.8	68.8	68.8	91	66.1	0	0	---	0.00	29.794 
00:40	68.8	68.8	68.8	91	66.1	0	0	---	0.00	29.794 
00:45	68.6	68.6	68.6	91	65.9	0	0	---	0.00	29.789 
00:50	68.6	68.6	68.6	91	65.9	0	0	---	0.00	29.789 
00:55	68.4	68.4	68.4	91	65.7	0	0	---	0.00	29.789 
01:00	68.4	68.4	68.4	91	65.7	0	0	---	0.00	29.789 
01:05	68.4	68.4	68.4	92	66.0	0	0	---	0.00	29.789 
01:10	68.3	68.3	68.3	92	65.9	0	0	---	0.00	29.789 
01:15	68.3	68.3	68.3	92	65.9	0	0	---	0.00	29.789 
01:20	68.1	68.1	68.1	92	65.7	0	0	---	0.00	29.789 
01:25	68.1	68.1	68.1	92	65.7	0	0	---	0.00	29.789 
01:30	68.1	68.1	68.1	92	65.7	0	0	---	0.00	29.791 
01:35	67.9	67.9	67.9	92	65.5	0	0	---	0.00	29.791 
01:40	67.9	67.9	67.9	92	65.5	0	0	---	0.00	29.791 
01:45	67.9	67.9	67.9	92	65.5	0	0	---	0.00	29.790 
01:50	67.8	67.8	67.8	92	65.4	0	0	---	0.00	29.790 
01:55	67.8	67.8	67.8	93	65.7	0	0	---	0.00	29.790 
02:00	67.8	67.8	67.8	93	65.7	0	0	---	0.00	29.786 
02:05	67.8	67.8	67.8	93	65.7	0	0	---	0.00	29.786 
02:10	67.8	67.8	67.8	93	65.7	0	0	---	0.00	29.786 
02:15	67.8	67.8	67.8	93	65.7	0	0	---	0.00	29.779 
02:20	67.8	67.8	67.8	93	65.7	0	0	---	0.00	29.779 
02:25	67.8	67.8	67.8	93	65.7	0	0	---	0.00	29.779 
02:30	67.8	67.8	67.8	93	65.7	0	0	---	0.00	29.778 
02:35	67.6	67.6	67.6	93	65.5	0	0	---	0.00	29.778 
02:40	67.6	67.6	67.6	93	65.5	0	0	---	0.00	29.778 
02:45	67.6	67.6	67.6	94	65.8	0	0	---	0.00	29.775 
02:50	67.6	67.6	67.6	94	65.8	0	0	---	0.00	29.775 
02:55	67.6	67.6	67.6	94	65.8	0	0	---	0.00	29.775 
03:00	67.8	67.8	67.8	94	66.0	0	0	---	0.00	29.763 
03:05	67.8	67.8	67.8	94	66.0	0	0	---	0.00	29.763 
03:10	67.8	67.8	67.8	94	66.0	0	0	---	0.00	29.763 
03:15	67.9	67.9	67.9	94	66.1	0	0	---	0.00	29.759 
03:20	67.9	67.9	67.9	94	66.1	0	0	---	0.00	29.759 
03:25	68.1	68.1	68.1	94	66.3	0	0	---	0.00	29.759 
03:30	68.1	68.1	68.1	94	66.3	0	0	---	0.00	29.747 
03:35	68.1	68.1	68.1	94	66.3	0	0	---	0.00	29.747 
03:40	68.1	68.1	68.1	94	66.3	0	0	---	0.00	29.747 
03:45	68.1	68.1	68.1	94	66.3	0	0	---	0.00	29.744 
03:50	67.9	67.9	67.9	94	66.1	0	0	---	0.00	29.744 
03:55	68.1	68.1	68.1	94	66.3	0	0	---	0.00	29.744 
04:00	68.1	68.1	68.1	94	66.3	0	0	---	0.00	29.740 
04:05	68.1	68.1	68.1	94	66.3	0	0	---	0.00	29.740 
04:10	68.1	68.1	68.1	94	66.3	0	0	---	0.00	29.740 
04:15	68.1	68.1	68.1	94	66.3	0	0	---	0.00	29.735 
04:20	67.9	67.9	67.9	94	66.1	0	0	---	0.00	29.735 
04:25	68.1	68.1	68.1	94	66.3	0	1	90	0.00	29.735 
04:30	68.3	68.3	68.3	94	66.5	0	0	---	0.00	29.734 
04:35	68.1	68.1	68.1	94	66.3	0	0	---	0.00	29.734 
04:40	68.1	68.1	68.1	94	66.3	0	0	---	0.00	29.734 
04:45	68.3	68.3	68.3	94	66.5	0	0	---	0.00	29.740 
04:50	68.4	68.4	68.4	94	66.6	0	0	---	0.00	29.740 
04:55	68.4	68.4	68.4	94	66.6	0	0	---	0.00	29.740 
05:00	68.4	68.4	68.4	94	66.6	0	0	---	0.00	29.728 
05:05	68.6	68.6	68.6	94	66.8	0	1	90	0.00	29.728 
05:10	68.9	68.9	68.9	94	67.1	0	1	90	0.00	29.728 
05:15	69.1	69.1	69.1	94	67.3	0	1	90	0.00	29.720 
05:20	69.3	69.3	69.3	94	67.5	0	1	90	0.00	29.720 
05:25	69.4	69.4	69.4	94	67.6	0	2	90	0.00	29.720 
05:30	69.6	69.6	69.6	94	67.8	0	1	90	0.00	29.713 
05:35	69.8	69.8	69.8	93	67.7	0	0	---	0.00	29.713 
05:40	69.8	69.8	69.8	93	67.7	0	1	90	0.00	29.713 
05:45	69.9	69.9	69.9	93	67.8	0	0	---	0.00	29.709 
05:50	69.9	69.9	69.9	93	67.8	0	1	90	0.00	29.709 
05:55	69.9	69.9	69.9	92	67.5	0	1	90	0.00	29.709 
06:00	69.9	69.9	69.9	92	67.5	0	1	90	0.00	29.692 
06:05	70.1	70.1	70.1	92	67.7	0	1	90	0.00	29.692 
06:10	70.1	70.1	70.1	92	67.7	0	1	90	0.00	29.692 
06:15	70.1	70.1	70.1	92	67.7	0	0	---	0.00	29.685 
06:20	70.1	70.1	70.1	92	67.7	0	1	90	0.00	29.685 
06:25	70.1	70.1	70.1	92	67.7	0	0	---	0.00	29.685 
06:30	70.1	70.1	70.1	92	67.7	0	1	90	0.00	29.707 
06:35	70.3	70.3	70.3	92	67.9	0	1	90	0.00	29.707 
06:40	70.3	70.3	70.3	92	67.9	0	0	---	0.00	29.707 
06:45	70.1	70.1	70.1	92	67.7	0	1	90	0.00	29.696 
06:50	70.1	70.1	70.1	92	67.7	0	0	---	0.00	29.696 
06:55	70.1	70.1	70.1	92	67.7	0	1	90	0.00	29.696 
07:00	70.3	70.3	70.3	92	67.9	0	1	90	0.00	29.711 
07:05	70.3	70.3	70.3	91	67.5	0	0	---	0.00	29.711 
07:10	70.3	70.3	70.3	91	67.5	0	1	90	0.00	29.711 
07:15	70.3	70.3	70.3	91	67.5	0	0	---	0.00	29.719 
07:20	70.1	70.1	70.1	91	67.3	0	1	90	0.00	29.719 
07:25	70.3	70.3	70.3	92	67.9	0	2	90	0.00	29.719 
07:30	70.3	70.3	70.3	91	67.5	0	2	90	0.00	29.721 
07:35	70.4	70.4	70.4	91	67.6	0	1	90	0.00	29.721 
07:40	70.4	70.4	70.4	91	67.6	0	1	90	0.00	29.721 
07:45	70.8	70.8	70.8	91	68.0	0	1	90	0.00	29.727 
07:50	70.9	70.9	70.9	91	68.1	1	3	90	0.00	29.727 
07:55	71.3	71.3	71.3	90	68.2	0	2	90	0.00	29.727 
08:00	71.5	71.5	71.5	89	68.1	0	3	90	0.00	29.727 
08:05	71.8	71.8	71.8	88	68.0	0	2	90	0.00	29.727 
08:10	72.3	72.3	72.3	88	68.5	0	1	90	0.00	29.727 
08:15	72.7	72.7	72.7	87	68.6	0	2	90	0.00	29.726 
08:20	73.0	73.0	73.0	84	67.9	1	3	90	0.00	29.726 
08:25	73.5	73.5	73.5	83	68.0	1	2	90	0.00	29.726 
08:30	74.0	74.0	74.0	81	67.8	0	2	315	0.00	29.724 
08:35	74.4	74.4	74.4	80	67.8	0	2	315	0.00	29.724 
08:40	74.9	74.9	74.9	79	67.9	0	2	315	0.00	29.724 
08:45	75.3	75.3	76.3	77	67.6	0	2	270	0.00	29.725 
08:50	75.6	75.6	76.8	76	67.5	0	2	270	0.00	29.725 
08:55	75.8	75.8	77.1	75	67.3	1	3	270	0.00	29.725 
09:00	76.0	76.0	77.4	74	67.1	1	3	270	0.00	29.724 
09:05	76.0	76.0	77.5	73	66.7	2	4	270	0.00	29.724 
09:10	76.0	76.0	77.5	73	66.7	1	3	270	0.00	29.724 
09:15	76.1	76.1	77.6	73	66.8	1	3	270	0.00	29.733 
09:20	76.3	76.3	77.8	73	67.0	2	4	270	0.00	29.733 
09:25	76.7	76.7	78.3	74	67.8	1	2	270	0.00	29.733 
09:30	76.8	76.8	78.5	71	66.7	2	5	270	0.00	29.736 
09:35	77.0	77.0	78.8	71	66.9	3	4	292	0.00	29.736 
09:40	77.2	77.2	79.0	70	66.6	2	5	270	0.00	29.736 
09:45	77.2	77.2	79.0	70	66.6	3	5	270	0.00	29.739 
09:50	77.6	77.6	79.5	69	66.6	2	4	270	0.00	29.739 
09:55	77.7	77.7	79.6	68	66.3	2	5	270	0.00	29.739 
10:00	77.7	77.7	79.6	69	66.7	2	4	270	0.00	29.738 
10:05	77.9	77.9	79.8	67	66.0	2	4	270	0.00	29.738 
10:10	78.1	78.1	80.0	67	66.2	2	5	270	0.00	29.738 
10:15	78.3	78.3	80.2	66	66.0	2	4	270	0.00	29.731 
10:20	78.5	78.5	80.4	65	65.7	2	5	270	0.00	29.731 
10:25	78.6	78.6	80.6	65	65.8	1	4	315	0.00	29.731 
10:30	79.0	79.0	81.0	64	65.8	2	4	315	0.00	29.728 
10:35	79.2	79.2	81.1	63	65.5	2	4	292	0.00	29.728 
10:40	79.4	79.4	81.5	64	66.1	2	3	292	0.00	29.728 
10:45	79.6	79.6	81.4	61	64.9	2	4	292	0.00	29.732 
10:50	79.8	79.8	81.4	58	63.7	3	6	292	0.00	29.732 
10:55	79.8	79.8	81.5	59	64.2	3	6	292	0.00	29.732 
11:00	79.9	79.9	81.8	61	65.2	1	4	292	0.00	29.732 
11:05	80.1	80.1	81.7	58	64.0	2	4	315	0.00	29.732 
11:10	80.3	80.3	81.8	57	63.7	3	5	315	0.00	29.732 
11:15	80.1	80.1	81.5	56	63.0	3	9	292	0.00	29.737 
11:20	80.3	80.3	81.7	56	63.1	3	5	270	0.00	29.737 
11:25	80.5	80.5	81.9	56	63.3	3	5	270	0.00	29.737 
11:30	80.5	80.5	81.9	56	63.3	3	5	270	0.00	29.740 
11:35	80.9	80.9	82.4	56	63.7	2	5	338	0.00	29.740 
11:40	81.1	81.1	82.5	55	63.4	2	4	270	0.00	29.740 
11:45	81.2	81.2	82.7	56	64.0	2	4	270	0.00	29.737 
11:50	81.2	81.2	82.7	56	64.0	2	6	270	0.00	29.737 
11:55	81.4	81.4	83.0	56	64.2	2	4	315	0.00	29.737 
12:00	81.6	81.6	82.9	54	63.3	2	5	315	0.00	29.734 
12:05	82.2	82.2	83.8	55	64.4	1	5	315	0.00	29.734 
12:10	82.4	82.4	83.7	53	63.5	2	4	270	0.00	29.734 
12:15	82.6	82.6	84.1	54	64.2	1	3	270	0.00	29.732 
12:20	83.0	83.0	84.3	52	63.5	2	3	270	0.00	29.732 
12:25	83.4	83.4	84.8	52	63.9	2	6	270	0.00	29.732 
12:30	83.8	83.8	85.1	51	63.7	1	4	292	0.00	29.725 
12:35	83.6	83.6	84.4	49	62.4	2	5	292	0.00	29.725 
12:40	83.4	83.4	84.4	50	62.8	2	5	270	0.00	29.725 
12:45	83.4	83.4	84.8	52	63.9	3	6	292	0.00	29.739 
12:50	83.6	83.6	84.8	51	63.5	1	3	292	0.00	29.739 
12:55	83.8	83.8	85.3	52	64.3	2	5	270	0.00	29.739 
13:00	83.6	83.6	85.0	52	64.1	2	6	270	0.00	29.727 
13:05	84.0	84.0	85.3	51	63.9	1	5	270	0.00	29.727 
13:10	84.1	84.1	85.5	51	64.0	1	3	270	0.00	29.727 
13:15	84.0	84.0	84.9	49	62.8	2	6	270	0.00	29.724 
13:20	84.0	84.0	85.1	50	63.3	1	3	292	0.00	29.724 
13:25	84.1	84.1	85.5	51	64.0	2	4	292	0.00	29.724 
13:30	84.1	84.1	85.3	50	63.4	2	6	270	0.00	29.725 
13:35	84.0	84.0	85.3	51	63.9	3	7	315	0.00	29.725 
13:40	84.0	84.0	84.9	49	62.8	2	5	248	0.00	29.725 
13:45	84.1	84.1	85.0	49	62.8	2	4	270	0.00	29.715 
13:50	84.3	84.3	85.5	50	63.6	2	5	270	0.00	29.715 
13:55	84.3	84.3	85.1	48	62.4	2	5	270	0.00	29.715 
14:00	84.3	84.3	84.9	47	61.8	2	4	270	0.00	29.710 
14:05	84.3	84.3	85.3	49	63.0	2	5	270	0.00	29.710 
14:10	84.7	84.7	86.0	50	64.0	2	5	270	0.00	29.710 
14:15	84.7	84.7	86.0	50	64.0	3	9	270	0.00	29.715 
14:20	84.1	84.1	85.3	50	63.4	2	5	292	0.00	29.715 
14:25	83.2	83.2	84.1	50	62.6	4	7	270	0.00	29.715 
14:30	82.6	82.6	83.8	52	63.2	3	9	315	0.00	29.718 
14:35	82.6	82.6	83.8	52	63.2	4	9	270	0.00	29.718 
14:40	82.8	82.8	84.0	52	63.3	3	5	292	0.00	29.718 
14:45	83.4	83.4	85.0	53	64.4	3	5	270	0.00	29.713 
14:50	83.8	83.8	85.5	53	64.8	2	5	270	0.00	29.713 
14:55	83.8	83.8	85.3	52	64.3	3	6	270	0.00	29.713 
15:00	83.6	83.6	85.0	52	64.1	4	10	292	0.00	29.710 
15:05	83.0	83.0	84.3	52	63.5	4	7	315	0.00	29.710 
15:10	83.0	83.0	84.7	54	64.6	4	7	292	0.00	29.710 
15:15	83.6	83.6	85.0	52	64.1	3	6	270	0.00	29.706 
15:20	83.0	83.0	84.1	51	63.0	4	8	270	0.00	29.706 
15:25	81.6	81.6	82.8	53	62.8	4	8	338	0.00	29.706 
15:30	82.0	82.0	83.4	54	63.7	3	7	270	0.00	29.706 
15:35	82.6	82.6	84.1	54	64.2	4	7	292	0.00	29.706 
15:40	83.0	83.0	84.5	53	64.1	3	6	292	0.00	29.706 
15:45	83.4	83.4	84.8	52	63.9	3	6	315	0.00	29.703 
15:50	83.4	83.4	84.4	50	62.8	4	7	315	0.00	29.703 
15:55	83.6	83.6	84.8	51	63.5	3	7	270	0.00	29.703 
16:00	83.8	83.8	84.9	50	63.1	3	6	270	0.00	29.699 
16:05	83.6	83.6	85.0	52	64.1	3	6	315	0.00	29.699 
16:10	83.2	83.2	84.5	52	63.7	2	6	315	0.00	29.699 
16:15	82.4	82.4	83.5	52	63.0	4	9	315	0.00	29.703 
16:20	82.8	82.8	84.0	52	63.3	4	7	315	0.00	29.703 
16:25	82.4	82.4	83.5	52	63.0	4	6	270	0.00	29.703 
16:30	82.8	82.8	84.0	52	63.3	4	7	270	0.00	29.707 
16:35	82.6	82.6	83.8	52	63.2	4	9	292	0.00	29.707 
16:40	82.4	82.4	83.9	54	64.1	3	6	270	0.00	29.707 
16:45	83.0	83.0	84.9	55	65.1	3	10	292	0.00	29.707 
16:50	82.4	82.4	84.1	55	64.6	5	9	270	0.00	29.707 
16:55	81.4	81.4	83.3	58	65.2	3	7	315	0.00	29.707 
17:00	80.9	80.9	82.9	60	65.7	4	9	315	0.00	29.715 
17:05	80.7	80.7	82.7	60	65.5	4	7	270	0.00	29.715 
17:10	80.1	80.1	82.2	62	65.9	4	6	338	0.00	29.715 
17:15	79.9	79.9	81.8	61	65.2	3	6	315	0.00	29.715 
17:20	79.6	79.6	81.6	63	65.9	4	7	292	0.00	29.715 
17:25	79.4	79.4	81.4	63	65.7	4	7	315	0.00	29.715 
17:30	79.2	79.2	81.1	62	65.0	4	9	292	0.00	29.723 
17:35	78.3	78.3	80.2	64	65.1	4	9	292	0.00	29.723 
17:40	77.6	77.6	79.4	65	64.9	4	13	338	0.00	29.723 
17:45	77.0	77.0	78.8	65	64.3	3	7	315	0.00	29.731 
17:50	77.0	77.0	78.8	65	64.3	4	10	292	0.00	29.731 
17:55	76.7	76.7	78.5	65	64.0	4	7	270	0.00	29.731 
18:00	76.5	76.5	78.3	65	63.8	3	6	292	0.00	29.745 
18:05	76.5	76.5	78.3	65	63.8	3	7	315	0.00	29.745 
18:10	76.0	76.0	77.8	66	63.8	3	10	315	0.00	29.745 
18:15	75.4	75.4	77.3	66	63.2	4	7	292	0.00	29.749 
18:20	75.3	75.3	77.3	65	62.7	4	7	315	0.00	29.749 
18:25	75.3	75.3	77.3	65	62.7	3	6	292	0.00	29.749 
18:30	74.7	74.7	74.7	65	62.1	3	6	292	0.00	29.750 
18:35	74.7	74.7	74.7	65	62.1	2	5	292	0.00	29.750 
18:40	74.4	74.4	74.4	65	61.8	3	7	292	0.00	29.750 
18:45	74.0	74.0	74.0	66	61.9	3	7	292	0.00	29.759 
18:50	73.9	73.9	73.9	66	61.8	3	5	315	0.00	29.759 
18:55	73.9	73.9	73.9	66	61.8	2	5	315	0.00	29.759 
19:00	73.9	73.9	73.9	64	60.9	3	6	315	0.00	29.755 
19:05	73.9	73.9	73.9	64	60.9	2	5	315	0.00	29.755 
19:10	73.5	73.5	73.5	61	59.2	4	7	315	0.00	29.755 
19:15	73.2	73.2	73.2	61	58.9	3	6	338	0.00	29.760 
19:20	73.0	73.0	73.0	61	58.7	2	6	292	0.00	29.760 
19:25	72.8	72.8	72.8	62	59.0	2	5	292	0.00	29.760 
19:30	72.8	72.8	72.8	62	59.0	1	5	292	0.00	29.761 
19:35	72.8	72.8	72.8	62	59.0	2	6	270	0.00	29.761 
19:40	72.7	72.7	72.7	61	58.5	3	6	315	0.00	29.761 
19:45	72.7	72.7	72.7	61	58.5	3	6	315	0.00	29.765 
19:50	72.5	72.5	72.5	61	58.3	2	7	315	0.00	29.765 
19:55	72.3	72.3	72.3	60	57.6	2	6	292	0.00	29.765 
20:00	72.3	72.3	72.3	61	58.1	2	6	270	0.00	29.765 
20:05	72.1	72.1	72.1	56	55.5	4	9	270	0.00	29.765 
20:10	72.0	72.0	72.0	56	55.4	2	5	338	0.00	29.765 
20:15	72.0	72.0	72.0	57	55.9	2	5	292	0.00	29.761 
20:20	71.8	71.8	71.8	55	54.7	2	5	315	0.00	29.761 
20:25	71.6	71.6	71.6	54	54.1	2	7	292	0.00	29.761 
20:30	71.5	71.5	71.5	53	53.5	3	7	292	0.00	29.761 
20:35	71.1	71.1	71.1	54	53.6	3	7	292	0.00	29.761 
20:40	70.9	70.9	70.9	55	53.9	2	5	292	0.00	29.761 
20:45	70.4	70.4	70.4	55	53.4	3	7	338	0.00	29.764 
20:50	70.3	70.3	70.3	56	53.8	2	5	292	0.00	29.764 
20:55	69.9	69.9	69.9	58	54.4	2	6	292	0.00	29.764 
21:00	69.6	69.6	69.6	58	54.2	1	5	292	0.00	29.763 
21:05	69.3	69.3	69.3	58	53.9	2	4	315	0.00	29.763 
21:10	68.9	68.9	68.9	58	53.5	2	5	292	0.00	29.763 
21:15	68.8	68.8	68.8	59	53.9	1	3	315	0.00	29.772 
21:20	68.4	68.4	68.4	59	53.5	2	4	315	0.00	29.772 
21:25	68.1	68.1	68.1	60	53.7	1	4	315	0.00	29.772 
21:30	67.8	67.8	67.8	61	53.9	1	4	315	0.00	29.780 
21:35	67.6	67.6	67.6	62	54.1	1	3	315	0.00	29.780 
21:40	67.3	67.3	67.3	62	53.8	1	3	315	0.00	29.780 
21:45	67.1	67.1	67.1	62	53.6	2	5	338	0.00	29.785 
21:50	66.8	66.8	66.8	62	53.4	1	4	292	0.00	29.785 
21:55	66.6	66.6	66.6	62	53.2	2	5	315	0.00	29.785 
22:00	66.4	66.4	66.4	62	53.0	1	4	315	0.00	29.794 
22:05	66.3	66.3	66.3	63	53.3	1	4	315	0.00	29.794 
22:10	66.1	66.1	66.1	63	53.1	0	1	315	0.00	29.794 
22:15	65.8	65.8	65.8	64	53.3	0	4	315	0.00	29.808 
22:20	65.6	65.6	65.6	65	53.5	0	2	315	0.00	29.808 
22:25	65.5	65.5	65.5	65	53.4	0	1	315	0.00	29.808 
22:30	65.3	65.3	65.3	65	53.2	0	2	315	0.00	29.812 
22:35	65.2	65.2	65.2	65	53.1	0	2	315	0.00	29.812 
22:40	64.8	64.8	64.8	66	53.2	0	2	315	0.00	29.812 
22:45	64.7	64.7	64.7	66	53.1	0	2	315	0.00	29.825 
22:50	64.5	64.5	64.5	67	53.3	0	1	315	0.00	29.825 
22:55	64.3	64.3	64.3	67	53.1	0	1	315	0.00	29.825 
23:00	64.2	64.2	64.2	67	53.0	0	1	315	0.00	29.830 
23:05	64.0	64.0	64.0	68	53.2	0	2	315	0.00	29.830 
23:10	63.9	63.9	63.9	69	53.5	0	1	315	0.00	29.830 
23:15	63.7	63.7	63.7	69	53.3	0	1	315	0.00	29.838 
23:20	63.4	63.4	63.4	70	53.4	0	1	315	0.00	29.838 
23:25	63.2	63.2	63.2	71	53.6	0	2	315	0.00	29.838 
23:30	63.1	63.1	63.1	72	53.9	0	3	315	0.00	29.846 
23:35	62.9	62.9	62.9	72	53.7	0	2	315	0.00	29.846 
23:40	62.7	62.7	62.7	73	53.9	1	4	270	0.00	29.846 
23:45	62.6	62.6	62.6	74	54.2	0	3	270	0.00	29.852 
23:50	62.4	62.4	62.4	74	54.0	0	2	292	0.00	29.852 
23:55	62.4	62.4	62.4	75	54.4	1	2	292	0.00	29.852 

CoCoRaHS
IN-AL-39
A2 Web Hosting
Creative Commons License
GoDaddy
search engine by freefind advanced

loaded 2018-11-16 10:57:34 • last modified 2010-11-18 10:43:29
Privacy PolicyDisclaimer
• wx.awcolley.com is powered by PmWiki v.2002016 •
• all content (unless otherwise noted) © 2018 A W Colley